createdAt,value
2022-09-23T00:02:18.288Z,85.37
2022-09-23T00:08:20.256Z,85.07
2022-09-23T00:14:22.265Z,84.53
2022-09-23T00:20:25.240Z,85.99
2022-09-23T00:26:30.407Z,85.78
2022-09-23T00:32:33.515Z,86.49
2022-09-23T00:38:35.435Z,86.31
2022-09-23T00:44:55.338Z,85.83
2022-09-23T00:50:57.328Z,85.00
2022-09-23T00:57:00.900Z,85.85
2022-09-23T01:03:05.073Z,85.27
2022-09-23T01:09:07.577Z,86.12
2022-09-23T01:15:38.290Z,86.37
2022-09-23T01:22:09.297Z,87.13
2022-09-23T01:28:33.357Z,87.25
2022-09-23T01:34:46.016Z,87.41
2022-09-23T01:48:04.539Z,88.96
2022-09-23T01:54:38.807Z,89.42
2022-09-23T02:00:59.836Z,89.70
2022-09-23T02:07:15.204Z,89.95
2022-09-23T02:13:30.161Z,91.11
2022-09-23T02:19:54.152Z,90.58
2022-09-23T02:26:08.661Z,92.19
2022-09-23T02:32:34.945Z,91.54
2022-09-23T02:38:57.531Z,91.59
2022-09-23T02:44:59.437Z,92.37
2022-09-23T02:51:03.618Z,93.10
2022-09-23T02:57:29.005Z,93.20
2022-09-23T03:04:09.323Z,93.58
2022-09-23T03:10:30.165Z,93.60
2022-09-23T03:16:56.245Z,93.75
2022-09-23T03:23:15.409Z,93.59
2022-09-23T03:29:19.659Z,94.23
2022-09-23T03:35:38.944Z,94.25
2022-09-23T03:42:05.675Z,94.35
2022-09-23T03:48:10.044Z,94.84
2022-09-23T03:54:15.011Z,94.99
2022-09-23T04:00:27.528Z,95.55
2022-09-23T04:06:29.392Z,94.66
2022-09-23T04:12:31.588Z,94.87
2022-09-23T04:18:33.561Z,94.64
2022-09-23T04:24:35.746Z,95.22
2022-09-23T04:30:43.761Z,95.83
2022-09-23T04:36:46.887Z,95.73
2022-09-23T04:42:50.331Z,96.12
2022-09-23T04:48:52.471Z,95.67
2022-09-23T04:54:54.375Z,95.38
2022-09-23T05:01:01.731Z,95.18
2022-09-23T05:07:06.344Z,94.80
2022-09-23T05:13:09.103Z,94.30
2022-09-23T05:19:13.557Z,94.25
2022-09-23T05:25:15.612Z,93.80
2022-09-23T05:31:21.050Z,92.93
2022-09-23T05:37:23.345Z,93.30
2022-09-23T05:43:26.238Z,93.57
2022-09-23T05:49:48.226Z,92.81
2022-09-23T05:55:50.109Z,92.37
2022-09-23T06:01:55.773Z,92.13
2022-09-23T06:07:58.974Z,91.06
2022-09-23T06:14:02.373Z,89.87
2022-09-23T06:20:04.721Z,88.98
2022-09-23T06:26:33.708Z,87.20
2022-09-23T06:32:35.787Z,84.03
2022-09-23T06:38:44.726Z,65.86
2022-09-23T06:44:46.572Z,64.01
2022-09-23T06:50:49.389Z,65.13
2022-09-23T06:56:51.781Z,65.81
2022-09-23T07:02:54.901Z,69.14
2022-09-23T07:08:56.880Z,70.57
2022-09-23T07:14:59.122Z,68.10
2022-09-23T07:21:16.945Z,67.41
2022-09-23T07:27:19.994Z,68.81
2022-09-23T07:33:31.666Z,70.54
2022-09-23T07:39:34.860Z,72.49
2022-09-23T07:45:38.912Z,72.06
2022-09-23T07:51:42.906Z,71.00
2022-09-23T07:57:44.809Z,69.49
2022-09-23T08:03:50.698Z,68.91
2022-09-23T08:09:52.600Z,67.64
2022-09-23T08:15:55.666Z,66.81
2022-09-23T08:21:58.097Z,63.16
2022-09-23T08:27:59.983Z,59.70
2022-09-23T08:34:02.364Z,56.12
2022-09-23T08:40:05.047Z,49.81
2022-09-23T08:46:15.210Z,42.67
2022-09-23T08:52:49.461Z,37.30
2022-09-23T08:59:36.036Z,34.89
2022-09-23T09:05:41.779Z,36.00
2022-09-23T09:11:49.302Z,36.70
2022-09-23T09:18:12.250Z,35.64
2022-09-23T09:24:35.130Z,34.21
2022-09-23T09:30:37.457Z,32.11
2022-09-23T09:37:44.973Z,30.47
2022-09-23T09:43:56.936Z,31.24
2022-09-23T09:50:07.081Z,30.67
2022-09-23T09:56:12.843Z,30.74
2022-09-23T10:02:36.963Z,29.31
2022-09-23T10:08:38.871Z,29.35
2022-09-23T10:14:41.132Z,28.99
2022-09-23T10:20:43.061Z,28.16
2022-09-23T10:27:04.361Z,27.00
2022-09-23T10:33:27.839Z,26.18
2022-09-23T10:39:48.519Z,26.78
2022-09-23T10:46:16.539Z,30.68
2022-09-23T10:52:31.918Z,27.65
2022-09-23T10:59:30.256Z,28.78
2022-09-23T11:06:15.142Z,29.13
2022-09-23T11:12:48.090Z,27.06
2022-09-23T11:19:14.876Z,32.70
2022-09-23T11:25:39.031Z,33.40
2022-09-23T11:31:43.613Z,32.28
2022-09-23T11:37:52.067Z,31.84
2022-09-23T11:44:21.458Z,31.90
2022-09-23T11:50:46.553Z,35.37
2022-09-23T11:57:28.797Z,34.24
2022-09-23T12:04:24.380Z,31.70
2022-09-23T12:10:55.518Z,29.58
2022-09-23T12:17:36.395Z,29.21
2022-09-23T12:24:03.161Z,30.07
2022-09-23T12:30:20.884Z,30.51
2022-09-23T12:36:42.728Z,30.97
2022-09-23T12:42:47.046Z,31.94
2022-09-23T12:48:57.986Z,29.11
2022-09-23T12:55:22.102Z,28.93
2022-09-23T13:01:26.808Z,29.89
2022-09-23T13:07:33.989Z,32.62
2022-09-23T13:13:44.185Z,33.47
2022-09-23T13:19:46.601Z,35.60
2022-09-23T13:25:51.527Z,36.88
2022-09-23T13:31:57.850Z,38.07
2022-09-23T13:38:08.833Z,38.78
2022-09-23T13:44:20.152Z,39.52
2022-09-23T13:50:23.888Z,40.01
2022-09-23T13:56:33.820Z,37.98
2022-09-23T14:02:43.208Z,39.10
2022-09-23T14:08:49.802Z,34.94
2022-09-23T14:14:52.581Z,35.15
2022-09-23T14:20:54.570Z,30.07
2022-09-23T14:27:04.009Z,30.14
2022-09-23T14:33:23.553Z,29.09
2022-09-23T14:39:25.526Z,29.64
2022-09-23T14:45:37.984Z,29.61
2022-09-23T14:51:54.723Z,32.91
2022-09-23T14:58:06.028Z,32.61
2022-09-23T15:04:23.006Z,33.76
2022-09-23T15:10:36.851Z,35.45
2022-09-23T15:16:40.106Z,35.84
2022-09-23T15:22:50.233Z,36.37
2022-09-23T15:28:56.014Z,34.28
2022-09-23T15:34:57.952Z,41.68
2022-09-23T15:40:59.919Z,43.80
2022-09-23T15:47:02.232Z,46.30
2022-09-23T15:53:06.219Z,49.53
2022-09-23T15:59:08.367Z,54.40
2022-09-23T16:05:46.835Z,56.91
2022-09-23T16:11:51.909Z,57.46
2022-09-23T16:17:54.675Z,59.93
2022-09-23T16:23:59.205Z,61.67
2022-09-23T16:30:01.236Z,62.24
2022-09-23T16:36:03.459Z,62.92
2022-09-23T16:42:05.398Z,63.23
2022-09-23T16:48:07.385Z,63.00
2022-09-23T16:54:13.147Z,62.39
2022-09-23T17:00:35.103Z,62.55
2022-09-23T17:07:01.419Z,62.18
2022-09-23T17:14:15.709Z,62.31
2022-09-23T17:26:50.680Z,64.10
2022-09-23T17:32:57.196Z,65.04
2022-09-23T17:38:59.113Z,66.47
2022-09-23T17:45:02.198Z,66.32
2022-09-23T17:51:07.339Z,66.70
2022-09-23T18:03:39.626Z,67.63
2022-09-23T18:09:43.993Z,67.82
2022-09-23T18:15:45.875Z,68.08
2022-09-23T18:21:57.213Z,67.22
2022-09-23T18:28:04.098Z,67.09
2022-09-23T18:34:11.467Z,66.03
2022-09-23T18:46:47.557Z,66.83
2022-09-23T18:52:49.576Z,67.89
2022-09-23T18:58:54.501Z,69.27
2022-09-23T19:04:56.707Z,70.51
2022-09-23T19:11:02.899Z,70.87
2022-09-23T19:17:05.203Z,71.69
2022-09-23T19:23:07.167Z,70.99
2022-09-23T19:29:15.053Z,71.61
2022-09-23T19:35:16.981Z,71.74
2022-09-23T19:41:20.051Z,72.45
2022-09-23T19:47:22.018Z,73.59
2022-09-23T19:53:28.001Z,73.61
2022-09-23T19:59:30.306Z,74.70
2022-09-23T20:05:32.318Z,74.76
2022-09-23T20:11:34.587Z,75.05
2022-09-23T20:17:36.516Z,75.51
2022-09-23T20:23:54.187Z,76.01
2022-09-23T20:36:24.165Z,76.80
2022-09-23T20:42:26.787Z,76.78
2022-09-23T20:48:29.817Z,77.26
2022-09-23T20:54:41.687Z,77.91
2022-09-23T21:00:44.563Z,78.41
2022-09-23T21:06:46.496Z,78.05
2022-09-23T21:12:50.378Z,78.03
2022-09-23T21:18:52.917Z,78.81
2022-09-23T21:25:26.445Z,79.67
2022-09-23T21:31:27.555Z,80.17
2022-09-23T21:37:29.538Z,80.86
2022-09-23T21:43:34.775Z,80.79
2022-09-23T21:49:36.741Z,81.56
2022-09-23T21:55:38.671Z,81.79
2022-09-23T22:01:44.862Z,81.89
2022-09-23T22:07:47.023Z,81.30
2022-09-23T22:13:48.918Z,81.43
2022-09-23T22:19:51.229Z,81.85
2022-09-23T22:26:02.825Z,82.29
2022-09-23T22:32:29.315Z,82.07
2022-09-23T22:38:31.243Z,82.17
2022-09-23T22:44:33.174Z,82.19
2022-09-23T22:50:39.671Z,82.25
2022-09-23T22:56:41.851Z,81.95
2022-09-23T23:02:43.779Z,81.81
2022-09-23T23:08:46.011Z,82.20
2022-09-23T23:14:49.373Z,80.33
2022-09-23T23:20:51.466Z,81.00
2022-09-23T23:26:53.554Z,80.78
2022-09-23T23:32:55.448Z,80.63
2022-09-23T23:38:57.892Z,80.93
2022-09-23T23:44:59.846Z,82.38
2022-09-23T23:51:05.745Z,82.75
2022-09-23T23:57:07.815Z,83.01
